sensor_id;sensor_type;location;lat;lon;timestamp;temperature;humidity
18682;DHT22;9471;51.168;4.154;2022-09-09T00:00:37;17.20;99.90
18682;DHT22;9471;51.168;4.154;2022-09-09T00:03:16;17.30;99.90
18682;DHT22;9471;51.168;4.154;2022-09-09T00:05:51;17.20;99.90
18682;DHT22;9471;51.168;4.154;2022-09-09T00:08:28;17.30;99.90
18682;DHT22;9471;51.168;4.154;2022-09-09T00:11:03;17.30;99.90
18682;DHT22;9471;51.168;4.154;2022-09-09T00:13:37;17.20;99.90
18682;DHT22;9471;51.168;4.154;2022-09-09T00:16:10;17.20;99.90
18682;DHT22;9471;51.168;4.154;2022-09-09T00:18:50;17.10;99.90
18682;DHT22;9471;51.168;4.154;2022-09-09T00:21:21;17.10;99.90
18682;DHT22;9471;51.168;4.154;2022-09-09T00:23:52;17.10;99.90
18682;DHT22;9471;51.168;4.154;2022-09-09T00:26:25;17.10;99.90
18682;DHT22;9471;51.168;4.154;2022-09-09T00:29:03;17.10;99.90
18682;DHT22;9471;51.168;4.154;2022-09-09T00:31:31;17.20;99.90
18682;DHT22;9471;51.168;4.154;2022-09-09T00:34:09;17.10;99.90
18682;DHT22;9471;51.168;4.154;2022-09-09T00:36:38;17.10;99.90
18682;DHT22;9471;51.168;4.154;2022-09-09T00:39:12;17.00;99.90
18682;DHT22;9471;51.168;4.154;2022-09-09T00:41:55;17.10;99.90
18682;DHT22;9471;51.168;4.154;2022-09-09T00:44:30;17.10;99.90
18682;DHT22;9471;51.168;4.154;2022-09-09T00:47:12;17.00;99.90
18682;DHT22;9471;51.168;4.154;2022-09-09T00:49:54;16.90;99.90
18682;DHT22;9471;51.168;4.154;2022-09-09T00:52:32;16.80;99.90
18682;DHT22;9471;51.168;4.154;2022-09-09T00:55:07;16.80;99.90
18682;DHT22;9471;51.168;4.154;2022-09-09T00:57:38;16.80;99.90
18682;DHT22;9471;51.168;4.154;2022-09-09T01:00:24;16.90;99.90
18682;DHT22;9471;51.168;4.154;2022-09-09T01:03:08;17.00;99.90
18682;DHT22;9471;51.168;4.154;2022-09-09T01:05:44;16.90;99.90
18682;DHT22;9471;51.168;4.154;2022-09-09T01:08:24;16.90;99.90
18682;DHT22;9471;51.168;4.154;2022-09-09T01:10:56;16.80;99.90
18682;DHT22;9471;51.168;4.154;2022-09-09T01:13:28;16.90;99.90
18682;DHT22;9471;51.168;4.154;2022-09-09T01:15:57;16.80;99.90
18682;DHT22;9471;51.168;4.154;2022-09-09T01:18:29;16.80;99.90
18682;DHT22;9471;51.168;4.154;2022-09-09T01:21:04;16.80;99.90
18682;DHT22;9471;51.168;4.154;2022-09-09T01:24:01;16.70;99.90
18682;DHT22;9471;51.168;4.154;2022-09-09T01:26:34;16.70;99.90
18682;DHT22;9471;51.168;4.154;2022-09-09T01:29:06;16.80;99.90
18682;DHT22;9471;51.168;4.154;2022-09-09T01:31:37;16.70;99.90
18682;DHT22;9471;51.168;4.154;2022-09-09T01:34:10;16.80;99.90
18682;DHT22;9471;51.168;4.154;2022-09-09T01:36:41;16.80;99.90
18682;DHT22;9471;51.168;4.154;2022-09-09T01:39:10;16.70;99.90
18682;DHT22;9471;51.168;4.154;2022-09-09T01:41:39;16.80;99.90
18682;DHT22;9471;51.168;4.154;2022-09-09T01:44:06;16.80;99.90
18682;DHT22;9471;51.168;4.154;2022-09-09T01:46:34;16.80;99.90
18682;DHT22;9471;51.168;4.154;2022-09-09T01:49:03;16.80;99.90
18682;DHT22;9471;51.168;4.154;2022-09-09T01:51:30;16.70;99.90
18682;DHT22;9471;51.168;4.154;2022-09-09T01:53:57;16.80;99.90
18682;DHT22;9471;51.168;4.154;2022-09-09T01:56:35;16.70;99.90
18682;DHT22;9471;51.168;4.154;2022-09-09T01:59:24;16.60;99.90
18682;DHT22;9471;51.168;4.154;2022-09-09T02:02:08;16.70;99.90
18682;DHT22;9471;51.168;4.154;2022-09-09T02:04:41;16.70;99.90
18682;DHT22;9471;51.168;4.154;2022-09-09T02:07:19;16.60;99.90
18682;DHT22;9471;51.168;4.154;2022-09-09T02:09:54;16.60;99.90
18682;DHT22;9471;51.168;4.154;2022-09-09T02:12:24;16.50;99.90
18682;DHT22;9471;51.168;4.154;2022-09-09T02:14:58;16.50;99.90
18682;DHT22;9471;51.168;4.154;2022-09-09T02:17:28;16.60;99.90
18682;DHT22;9471;51.168;4.154;2022-09-09T02:20:03;16.60;99.90
18682;DHT22;9471;51.168;4.154;2022-09-09T02:22:33;16.70;99.90
18682;DHT22;9471;51.168;4.154;2022-09-09T02:25:02;16.60;99.90
18682;DHT22;9471;51.168;4.154;2022-09-09T02:27:30;16.70;99.90
18682;DHT22;9471;51.168;4.154;2022-09-09T02:30:00;16.70;99.90
18682;DHT22;9471;51.168;4.154;2022-09-09T02:32:29;16.60;99.90
18682;DHT22;9471;51.168;4.154;2022-09-09T02:35:00;16.70;99.90
18682;DHT22;9471;51.168;4.154;2022-09-09T02:37:35;16.60;99.90
18682;DHT22;9471;51.168;4.154;2022-09-09T02:40:03;16.60;99.90
18682;DHT22;9471;51.168;4.154;2022-09-09T02:42:30;16.70;99.90
18682;DHT22;9471;51.168;4.154;2022-09-09T02:44:59;16.70;99.90
18682;DHT22;9471;51.168;4.154;2022-09-09T02:47:30;16.80;99.90
18682;DHT22;9471;51.168;4.154;2022-09-09T02:50:07;16.70;99.90
18682;DHT22;9471;51.168;4.154;2022-09-09T02:52:42;16.60;99.90
18682;DHT22;9471;51.168;4.154;2022-09-09T02:55:17;16.60;99.90
18682;DHT22;9471;51.168;4.154;2022-09-09T02:57:49;16.70;99.90
18682;DHT22;9471;51.168;4.154;2022-09-09T03:00:24;16.70;99.90
18682;DHT22;9471;51.168;4.154;2022-09-09T03:02:51;16.60;99.90
18682;DHT22;9471;51.168;4.154;2022-09-09T03:05:18;16.60;99.90
18682;DHT22;9471;51.168;4.154;2022-09-09T03:07:46;16.60;99.90
18682;DHT22;9471;51.168;4.154;2022-09-09T03:10:13;16.50;99.90
18682;DHT22;9471;51.168;4.154;2022-09-09T03:12:40;16.50;99.90
18682;DHT22;9471;51.168;4.154;2022-09-09T03:15:10;16.60;99.90
18682;DHT22;9471;51.168;4.154;2022-09-09T03:17:38;16.70;99.90
18682;DHT22;9471;51.168;4.154;2022-09-09T03:20:06;16.80;99.90
18682;DHT22;9471;51.168;4.154;2022-09-09T03:22:33;16.80;99.90
18682;DHT22;9471;51.168;4.154;2022-09-09T03:25:00;16.70;99.90
18682;DHT22;9471;51.168;4.154;2022-09-09T03:27:28;16.70;99.90
18682;DHT22;9471;51.168;4.154;2022-09-09T03:29:55;16.80;99.90
18682;DHT22;9471;51.168;4.154;2022-09-09T03:32:23;16.80;99.90
18682;DHT22;9471;51.168;4.154;2022-09-09T03:34:52;16.90;99.90
18682;DHT22;9471;51.168;4.154;2022-09-09T03:37:20;16.90;99.90
18682;DHT22;9471;51.168;4.154;2022-09-09T03:39:48;16.80;99.90
18682;DHT22;9471;51.168;4.154;2022-09-09T03:42:15;16.70;99.90
18682;DHT22;9471;51.168;4.154;2022-09-09T03:44:44;16.70;99.90
18682;DHT22;9471;51.168;4.154;2022-09-09T03:47:13;16.80;99.90
18682;DHT22;9471;51.168;4.154;2022-09-09T03:49:40;16.80;99.90
18682;DHT22;9471;51.168;4.154;2022-09-09T03:52:10;16.80;99.90
18682;DHT22;9471;51.168;4.154;2022-09-09T03:54:37;16.80;99.90
18682;DHT22;9471;51.168;4.154;2022-09-09T03:57:05;16.90;99.90
18682;DHT22;9471;51.168;4.154;2022-09-09T03:59:31;16.90;99.90
18682;DHT22;9471;51.168;4.154;2022-09-09T04:01:58;16.90;99.90
18682;DHT22;9471;51.168;4.154;2022-09-09T04:04:25;16.90;99.90
18682;DHT22;9471;51.168;4.154;2022-09-09T04:06:53;16.80;99.90
18682;DHT22;9471;51.168;4.154;2022-09-09T04:09:21;16.80;99.90
18682;DHT22;9471;51.168;4.154;2022-09-09T04:11:48;16.70;99.90
18682;DHT22;9471;51.168;4.154;2022-09-09T04:14:16;16.80;99.90
18682;DHT22;9471;51.168;4.154;2022-09-09T04:16:43;16.80;99.90
18682;DHT22;9471;51.168;4.154;2022-09-09T04:19:10;16.80;99.90
18682;DHT22;9471;51.168;4.154;2022-09-09T04:21:39;16.90;99.90
18682;DHT22;9471;51.168;4.154;2022-09-09T04:24:06;16.80;99.90
18682;DHT22;9471;51.168;4.154;2022-09-09T04:26:36;16.80;99.90
18682;DHT22;9471;51.168;4.154;2022-09-09T04:29:03;16.80;99.90
18682;DHT22;9471;51.168;4.154;2022-09-09T04:31:31;16.70;99.90
18682;DHT22;9471;51.168;4.154;2022-09-09T04:33:58;16.70;99.90
18682;DHT22;9471;51.168;4.154;2022-09-09T04:36:27;16.60;99.90
18682;DHT22;9471;51.168;4.154;2022-09-09T04:38:54;16.50;99.90
18682;DHT22;9471;51.168;4.154;2022-09-09T04:41:21;16.60;99.90
18682;DHT22;9471;51.168;4.154;2022-09-09T04:43:50;16.60;99.90
18682;DHT22;9471;51.168;4.154;2022-09-09T04:46:17;16.60;99.90
18682;DHT22;9471;51.168;4.154;2022-09-09T04:48:44;16.50;99.90
18682;DHT22;9471;51.168;4.154;2022-09-09T04:51:13;16.60;99.90
18682;DHT22;9471;51.168;4.154;2022-09-09T04:53:40;16.60;99.90
18682;DHT22;9471;51.168;4.154;2022-09-09T04:56:09;16.60;99.90
18682;DHT22;9471;51.168;4.154;2022-09-09T04:58:37;16.60;99.90
18682;DHT22;9471;51.168;4.154;2022-09-09T05:01:06;16.60;99.90
18682;DHT22;9471;51.168;4.154;2022-09-09T05:03:34;16.50;99.90
18682;DHT22;9471;51.168;4.154;2022-09-09T05:06:05;16.60;99.90
18682;DHT22;9471;51.168;4.154;2022-09-09T05:08:34;16.60;99.90
18682;DHT22;9471;51.168;4.154;2022-09-09T05:11:01;16.70;99.90
18682;DHT22;9471;51.168;4.154;2022-09-09T05:13:28;16.60;99.90
18682;DHT22;9471;51.168;4.154;2022-09-09T05:15:57;16.50;99.90
18682;DHT22;9471;51.168;4.154;2022-09-09T05:18:26;16.60;99.90
18682;DHT22;9471;51.168;4.154;2022-09-09T05:20:58;16.60;99.90
18682;DHT22;9471;51.168;4.154;2022-09-09T05:23:25;16.70;99.90
18682;DHT22;9471;51.168;4.154;2022-09-09T05:25:56;16.70;99.90
18682;DHT22;9471;51.168;4.154;2022-09-09T05:28:23;16.70;99.90
18682;DHT22;9471;51.168;4.154;2022-09-09T05:30:58;16.70;99.90
18682;DHT22;9471;51.168;4.154;2022-09-09T05:33:27;16.80;99.90
18682;DHT22;9471;51.168;4.154;2022-09-09T05:35:58;16.80;99.90
18682;DHT22;9471;51.168;4.154;2022-09-09T05:38:26;16.80;99.90
18682;DHT22;9471;51.168;4.154;2022-09-09T05:40:53;16.80;99.90
18682;DHT22;9471;51.168;4.154;2022-09-09T05:43:21;16.90;99.90
18682;DHT22;9471;51.168;4.154;2022-09-09T05:45:58;16.80;99.90
18682;DHT22;9471;51.168;4.154;2022-09-09T05:48:29;16.90;99.90
18682;DHT22;9471;51.168;4.154;2022-09-09T05:50:57;16.90;99.90
18682;DHT22;9471;51.168;4.154;2022-09-09T05:53:24;16.90;99.90
18682;DHT22;9471;51.168;4.154;2022-09-09T05:55:59;17.00;99.90
18682;DHT22;9471;51.168;4.154;2022-09-09T05:58:26;17.00;99.90
18682;DHT22;9471;51.168;4.154;2022-09-09T06:00:59;17.00;99.90
18682;DHT22;9471;51.168;4.154;2022-09-09T06:03:28;17.00;99.90
18682;DHT22;9471;51.168;4.154;2022-09-09T06:05:59;16.90;99.90
18682;DHT22;9471;51.168;4.154;2022-09-09T06:08:26;16.90;99.90
18682;DHT22;9471;51.168;4.154;2022-09-09T06:10:53;16.90;99.90
18682;DHT22;9471;51.168;4.154;2022-09-09T06:13:21;16.90;99.90
18682;DHT22;9471;51.168;4.154;2022-09-09T06:15:50;16.90;99.90
18682;DHT22;9471;51.168;4.154;2022-09-09T06:18:18;16.90;99.90
18682;DHT22;9471;51.168;4.154;2022-09-09T06:20:55;16.80;99.90
18682;DHT22;9471;51.168;4.154;2022-09-09T06:23:22;16.90;99.90
18682;DHT22;9471;51.168;4.154;2022-09-09T06:25:49;16.70;99.90
18682;DHT22;9471;51.168;4.154;2022-09-09T06:28:17;16.80;99.90
18682;DHT22;9471;51.168;4.154;2022-09-09T06:30:44;16.90;99.90
18682;DHT22;9471;51.168;4.154;2022-09-09T06:33:12;16.90;99.90
18682;DHT22;9471;51.168;4.154;2022-09-09T06:35:39;16.90;99.90
18682;DHT22;9471;51.168;4.154;2022-09-09T06:38:08;17.00;99.90
18682;DHT22;9471;51.168;4.154;2022-09-09T06:40:35;17.20;99.90
18682;DHT22;9471;51.168;4.154;2022-09-09T06:43:02;17.30;99.90
18682;DHT22;9471;51.168;4.154;2022-09-09T06:45:29;17.20;99.90
18682;DHT22;9471;51.168;4.154;2022-09-09T06:47:56;17.20;99.90
18682;DHT22;9471;51.168;4.154;2022-09-09T06:50:23;17.20;99.90
18682;DHT22;9471;51.168;4.154;2022-09-09T06:52:50;17.30;99.90
18682;DHT22;9471;51.168;4.154;2022-09-09T06:55:18;17.40;99.90
18682;DHT22;9471;51.168;4.154;2022-09-09T06:57:46;17.50;99.90
18682;DHT22;9471;51.168;4.154;2022-09-09T07:00:14;17.40;99.90
18682;DHT22;9471;51.168;4.154;2022-09-09T07:02:41;17.40;99.90
18682;DHT22;9471;51.168;4.154;2022-09-09T07:05:08;17.40;99.90
18682;DHT22;9471;51.168;4.154;2022-09-09T07:07:36;17.40;99.90
18682;DHT22;9471;51.168;4.154;2022-09-09T07:10:04;17.40;99.90
18682;DHT22;9471;51.168;4.154;2022-09-09T07:12:33;17.40;99.90
18682;DHT22;9471;51.168;4.154;2022-09-09T07:14:59;17.40;99.90
18682;DHT22;9471;51.168;4.154;2022-09-09T07:17:27;17.40;99.90
18682;DHT22;9471;51.168;4.154;2022-09-09T07:19:54;17.40;99.90
18682;DHT22;9471;51.168;4.154;2022-09-09T07:22:22;17.40;99.90
18682;DHT22;9471;51.168;4.154;2022-09-09T07:24:50;17.50;99.90
18682;DHT22;9471;51.168;4.154;2022-09-09T07:27:17;17.50;99.90
18682;DHT22;9471;51.168;4.154;2022-09-09T07:29:45;17.50;99.90
18682;DHT22;9471;51.168;4.154;2022-09-09T07:32:12;17.60;99.90
18682;DHT22;9471;51.168;4.154;2022-09-09T07:34:39;17.50;99.90
18682;DHT22;9471;51.168;4.154;2022-09-09T07:37:06;17.60;99.90
18682;DHT22;9471;51.168;4.154;2022-09-09T07:39:37;17.60;99.90
18682;DHT22;9471;51.168;4.154;2022-09-09T07:42:04;17.50;99.90
18682;DHT22;9471;51.168;4.154;2022-09-09T07:44:32;17.60;99.90
18682;DHT22;9471;51.168;4.154;2022-09-09T07:47:02;17.60;99.90
18682;DHT22;9471;51.168;4.154;2022-09-09T07:49:29;17.60;99.90
18682;DHT22;9471;51.168;4.154;2022-09-09T07:51:58;17.60;99.90
18682;DHT22;9471;51.168;4.154;2022-09-09T07:54:25;17.60;99.90
18682;DHT22;9471;51.168;4.154;2022-09-09T07:56:53;17.70;99.90
18682;DHT22;9471;51.168;4.154;2022-09-09T07:59:20;17.80;99.90
18682;DHT22;9471;51.168;4.154;2022-09-09T08:01:49;17.90;99.90
18682;DHT22;9471;51.168;4.154;2022-09-09T08:04:21;17.90;99.90
18682;DHT22;9471;51.168;4.154;2022-09-09T08:06:50;17.90;99.90
18682;DHT22;9471;51.168;4.154;2022-09-09T08:09:18;18.00;99.90
18682;DHT22;9471;51.168;4.154;2022-09-09T08:11:46;18.00;99.90
18682;DHT22;9471;51.168;4.154;2022-09-09T08:14:14;18.00;99.90
18682;DHT22;9471;51.168;4.154;2022-09-09T08:16:43;18.00;99.90
18682;DHT22;9471;51.168;4.154;2022-09-09T08:19:11;18.10;99.90
18682;DHT22;9471;51.168;4.154;2022-09-09T08:21:40;18.20;99.90
18682;DHT22;9471;51.168;4.154;2022-09-09T08:24:08;18.30;99.90
18682;DHT22;9471;51.168;4.154;2022-09-09T08:26:38;18.40;99.90
18682;DHT22;9471;51.168;4.154;2022-09-09T08:29:07;18.50;99.90
18682;DHT22;9471;51.168;4.154;2022-09-09T08:31:37;18.40;99.90
18682;DHT22;9471;51.168;4.154;2022-09-09T08:34:05;18.50;99.90
18682;DHT22;9471;51.168;4.154;2022-09-09T08:36:34;18.50;99.90
18682;DHT22;9471;51.168;4.154;2022-09-09T08:39:04;18.50;99.90
18682;DHT22;9471;51.168;4.154;2022-09-09T08:41:39;18.60;99.90
18682;DHT22;9471;51.168;4.154;2022-09-09T08:44:14;18.60;99.90
18682;DHT22;9471;51.168;4.154;2022-09-09T08:46:50;18.60;99.90
18682;DHT22;9471;51.168;4.154;2022-09-09T08:49:41;18.60;99.90
18682;DHT22;9471;51.168;4.154;2022-09-09T08:52:15;18.60;99.90
18682;DHT22;9471;51.168;4.154;2022-09-09T08:54:46;18.50;99.90
18682;DHT22;9471;51.168;4.154;2022-09-09T08:57:19;18.60;99.90
18682;DHT22;9471;51.168;4.154;2022-09-09T08:59:49;18.50;99.90
18682;DHT22;9471;51.168;4.154;2022-09-09T09:02:20;18.40;99.90
18682;DHT22;9471;51.168;4.154;2022-09-09T09:05:06;18.30;99.90
18682;DHT22;9471;51.168;4.154;2022-09-09T09:07:46;18.20;99.90
18682;DHT22;9471;51.168;4.154;2022-09-09T09:10:28;18.30;99.90
18682;DHT22;9471;51.168;4.154;2022-09-09T09:12:58;18.50;99.90
18682;DHT22;9471;51.168;4.154;2022-09-09T09:15:26;18.50;99.90
18682;DHT22;9471;51.168;4.154;2022-09-09T09:17:55;18.40;99.90
18682;DHT22;9471;51.168;4.154;2022-09-09T09:20:28;18.40;99.90
18682;DHT22;9471;51.168;4.154;2022-09-09T09:23:00;18.30;99.90
18682;DHT22;9471;51.168;4.154;2022-09-09T09:25:35;18.30;99.90
18682;DHT22;9471;51.168;4.154;2022-09-09T09:28:11;18.40;99.90
18682;DHT22;9471;51.168;4.154;2022-09-09T09:30:44;18.50;99.90
18682;DHT22;9471;51.168;4.154;2022-09-09T09:33:22;18.50;99.90
18682;DHT22;9471;51.168;4.154;2022-09-09T09:35:51;18.50;99.90
18682;DHT22;9471;51.168;4.154;2022-09-09T09:38:20;18.60;99.90
18682;DHT22;9471;51.168;4.154;2022-09-09T09:40:53;18.60;99.90
18682;DHT22;9471;51.168;4.154;2022-09-09T09:43:26;18.50;99.90
18682;DHT22;9471;51.168;4.154;2022-09-09T09:45:54;18.50;99.90
18682;DHT22;9471;51.168;4.154;2022-09-09T09:48:21;18.50;99.90
18682;DHT22;9471;51.168;4.154;2022-09-09T09:50:49;18.50;99.90
18682;DHT22;9471;51.168;4.154;2022-09-09T09:53:21;18.50;99.90
18682;DHT22;9471;51.168;4.154;2022-09-09T09:55:55;18.40;99.90
18682;DHT22;9471;51.168;4.154;2022-09-09T09:58:23;18.50;99.90
18682;DHT22;9471;51.168;4.154;2022-09-09T10:00:52;18.50;99.90
18682;DHT22;9471;51.168;4.154;2022-09-09T10:03:24;18.60;99.90
18682;DHT22;9471;51.168;4.154;2022-09-09T10:05:52;18.80;99.90
18682;DHT22;9471;51.168;4.154;2022-09-09T10:08:19;18.90;99.90
18682;DHT22;9471;51.168;4.154;2022-09-09T10:11:02;19.00;99.90
18682;DHT22;9471;51.168;4.154;2022-09-09T10:13:39;19.20;99.90
18682;DHT22;9471;51.168;4.154;2022-09-09T10:16:20;19.20;99.90
18682;DHT22;9471;51.168;4.154;2022-09-09T10:18:59;19.30;99.90
18682;DHT22;9471;51.168;4.154;2022-09-09T10:21:48;19.30;99.90
18682;DHT22;9471;51.168;4.154;2022-09-09T10:24:39;19.50;99.90
18682;DHT22;9471;51.168;4.154;2022-09-09T10:27:19;19.40;99.90
18682;DHT22;9471;51.168;4.154;2022-09-09T10:30:00;19.50;99.90
18682;DHT22;9471;51.168;4.154;2022-09-09T10:32:36;19.60;99.90
18682;DHT22;9471;51.168;4.154;2022-09-09T10:35:20;19.50;99.90
18682;DHT22;9471;51.168;4.154;2022-09-09T10:38:13;19.50;99.90
18682;DHT22;9471;51.168;4.154;2022-09-09T10:46:33;19.70;99.90
18682;DHT22;9471;51.168;4.154;2022-09-09T10:49:13;19.70;99.90
18682;DHT22;9471;51.168;4.154;2022-09-09T10:51:48;19.80;99.90
18682;DHT22;9471;51.168;4.154;2022-09-09T10:54:36;19.80;99.90
18682;DHT22;9471;51.168;4.154;2022-09-09T10:57:13;19.60;99.90
18682;DHT22;9471;51.168;4.154;2022-09-09T10:59:48;19.60;99.90
18682;DHT22;9471;51.168;4.154;2022-09-09T11:02:21;19.70;99.90
18682;DHT22;9471;51.168;4.154;2022-09-09T11:04:55;19.80;99.90
18682;DHT22;9471;51.168;4.154;2022-09-09T11:07:28;20.00;99.90
18682;DHT22;9471;51.168;4.154;2022-09-09T11:10:01;20.00;99.90
18682;DHT22;9471;51.168;4.154;2022-09-09T11:12:30;20.10;99.90
18682;DHT22;9471;51.168;4.154;2022-09-09T11:15:04;20.10;99.90
18682;DHT22;9471;51.168;4.154;2022-09-09T11:17:38;20.20;99.90
18682;DHT22;9471;51.168;4.154;2022-09-09T11:20:11;20.30;99.90
18682;DHT22;9471;51.168;4.154;2022-09-09T11:22:44;20.50;99.90
18682;DHT22;9471;51.168;4.154;2022-09-09T11:25:16;20.40;99.90
18682;DHT22;9471;51.168;4.154;2022-09-09T11:27:57;20.50;99.90
18682;DHT22;9471;51.168;4.154;2022-09-09T11:30:31;20.60;99.90
18682;DHT22;9471;51.168;4.154;2022-09-09T11:33:24;20.70;99.90
18682;DHT22;9471;51.168;4.154;2022-09-09T11:36:05;20.60;99.90
18682;DHT22;9471;51.168;4.154;2022-09-09T11:38:44;20.70;99.90
18682;DHT22;9471;51.168;4.154;2022-09-09T11:41:12;20.70;99.90
18682;DHT22;9471;51.168;4.154;2022-09-09T11:43:42;20.90;99.90
18682;DHT22;9471;51.168;4.154;2022-09-09T11:46:13;21.10;99.90
18682;DHT22;9471;51.168;4.154;2022-09-09T11:48:44;21.20;99.90
18682;DHT22;9471;51.168;4.154;2022-09-09T11:51:13;21.40;99.90
18682;DHT22;9471;51.168;4.154;2022-09-09T11:53:51;21.30;99.90
18682;DHT22;9471;51.168;4.154;2022-09-09T11:56:27;21.20;99.90
18682;DHT22;9471;51.168;4.154;2022-09-09T11:59:04;21.30;99.90
18682;DHT22;9471;51.168;4.154;2022-09-09T12:01:37;21.20;99.90
18682;DHT22;9471;51.168;4.154;2022-09-09T12:04:27;21.10;99.90
18682;DHT22;9471;51.168;4.154;2022-09-09T12:06:58;21.10;99.90
18682;DHT22;9471;51.168;4.154;2022-09-09T12:09:31;21.30;99.90
18682;DHT22;9471;51.168;4.154;2022-09-09T12:12:07;21.40;99.90
18682;DHT22;9471;51.168;4.154;2022-09-09T12:14:36;21.30;99.90
18682;DHT22;9471;51.168;4.154;2022-09-09T12:17:18;21.40;99.90
18682;DHT22;9471;51.168;4.154;2022-09-09T12:19:46;21.40;99.90
18682;DHT22;9471;51.168;4.154;2022-09-09T12:22:21;21.30;99.90
18682;DHT22;9471;51.168;4.154;2022-09-09T12:24:56;21.20;99.90
18682;DHT22;9471;51.168;4.154;2022-09-09T12:27:29;21.20;99.90
18682;DHT22;9471;51.168;4.154;2022-09-09T12:30:03;21.10;99.90
18682;DHT22;9471;51.168;4.154;2022-09-09T12:32:32;21.10;99.90
18682;DHT22;9471;51.168;4.154;2022-09-09T12:35:02;21.10;99.90
18682;DHT22;9471;51.168;4.154;2022-09-09T12:37:35;21.10;99.90
18682;DHT22;9471;51.168;4.154;2022-09-09T12:40:05;21.30;99.90
18682;DHT22;9471;51.168;4.154;2022-09-09T12:42:32;21.30;99.90
18682;DHT22;9471;51.168;4.154;2022-09-09T12:45:00;21.20;99.90
18682;DHT22;9471;51.168;4.154;2022-09-09T12:47:38;21.40;99.90
18682;DHT22;9471;51.168;4.154;2022-09-09T12:50:16;21.40;99.90
18682;DHT22;9471;51.168;4.154;2022-09-09T12:52:44;21.50;99.90
18682;DHT22;9471;51.168;4.154;2022-09-09T12:55:17;21.50;99.90
18682;DHT22;9471;51.168;4.154;2022-09-09T12:57:46;21.50;99.90
18682;DHT22;9471;51.168;4.154;2022-09-09T13:00:18;21.50;99.90
18682;DHT22;9471;51.168;4.154;2022-09-09T13:02:50;21.60;99.90
18682;DHT22;9471;51.168;4.154;2022-09-09T13:05:20;21.80;99.90
18682;DHT22;9471;51.168;4.154;2022-09-09T13:07:47;21.90;99.90
18682;DHT22;9471;51.168;4.154;2022-09-09T13:10:21;21.90;99.90
18682;DHT22;9471;51.168;4.154;2022-09-09T13:12:49;22.00;99.90
18682;DHT22;9471;51.168;4.154;2022-09-09T13:15:21;22.30;99.90
18682;DHT22;9471;51.168;4.154;2022-09-09T13:17:55;22.30;99.90
18682;DHT22;9471;51.168;4.154;2022-09-09T13:20:24;22.10;99.90
18682;DHT22;9471;51.168;4.154;2022-09-09T13:22:52;22.30;99.90
18682;DHT22;9471;51.168;4.154;2022-09-09T13:25:24;22.20;99.90
18682;DHT22;9471;51.168;4.154;2022-09-09T13:27:58;22.00;99.90
18682;DHT22;9471;51.168;4.154;2022-09-09T13:30:27;22.10;99.90
18682;DHT22;9471;51.168;4.154;2022-09-09T13:33:20;22.20;99.90
18682;DHT22;9471;51.168;4.154;2022-09-09T13:35:50;22.20;99.90
18682;DHT22;9471;51.168;4.154;2022-09-09T13:38:18;22.20;99.90
18682;DHT22;9471;51.168;4.154;2022-09-09T13:40:53;22.40;99.90
18682;DHT22;9471;51.168;4.154;2022-09-09T13:43:24;22.50;99.90
18682;DHT22;9471;51.168;4.154;2022-09-09T13:45:56;22.60;99.90
18682;DHT22;9471;51.168;4.154;2022-09-09T13:48:25;22.80;99.90
18682;DHT22;9471;51.168;4.154;2022-09-09T13:50:57;22.70;99.90
18682;DHT22;9471;51.168;4.154;2022-09-09T13:53:24;22.40;99.90
18682;DHT22;9471;51.168;4.154;2022-09-09T13:55:52;22.20;99.90
18682;DHT22;9471;51.168;4.154;2022-09-09T13:58:19;21.90;99.90
18682;DHT22;9471;51.168;4.154;2022-09-09T14:00:48;22.30;99.90
18682;DHT22;9471;51.168;4.154;2022-09-09T14:03:16;22.40;99.90
18682;DHT22;9471;51.168;4.154;2022-09-09T14:05:45;22.20;99.90
18682;DHT22;9471;51.168;4.154;2022-09-09T14:08:20;21.90;99.90
18682;DHT22;9471;51.168;4.154;2022-09-09T14:10:48;22.10;99.90
18682;DHT22;9471;51.168;4.154;2022-09-09T14:13:16;22.40;99.90
18682;DHT22;9471;51.168;4.154;2022-09-09T14:15:42;22.50;99.90
18682;DHT22;9471;51.168;4.154;2022-09-09T14:18:11;22.70;99.90
18682;DHT22;9471;51.168;4.154;2022-09-09T14:20:39;23.00;99.90
18682;DHT22;9471;51.168;4.154;2022-09-09T14:23:11;22.30;99.90
18682;DHT22;9471;51.168;4.154;2022-09-09T14:25:42;22.30;99.90
18682;DHT22;9471;51.168;4.154;2022-09-09T14:28:10;22.40;99.90
18682;DHT22;9471;51.168;4.154;2022-09-09T14:30:39;22.40;99.90
18682;DHT22;9471;51.168;4.154;2022-09-09T14:33:07;22.20;99.90
18682;DHT22;9471;51.168;4.154;2022-09-09T14:35:35;22.00;99.90
18682;DHT22;9471;51.168;4.154;2022-09-09T14:38:04;22.30;99.90
18682;DHT22;9471;51.168;4.154;2022-09-09T14:40:34;21.90;99.90
18682;DHT22;9471;51.168;4.154;2022-09-09T14:43:01;21.80;99.90
18682;DHT22;9471;51.168;4.154;2022-09-09T14:45:28;21.60;99.90
18682;DHT22;9471;51.168;4.154;2022-09-09T14:47:58;21.00;99.90
18682;DHT22;9471;51.168;4.154;2022-09-09T14:50:26;21.00;99.90
18682;DHT22;9471;51.168;4.154;2022-09-09T14:52:54;20.70;99.90
18682;DHT22;9471;51.168;4.154;2022-09-09T14:55:21;20.70;99.90
18682;DHT22;9471;51.168;4.154;2022-09-09T14:57:49;20.60;99.90
18682;DHT22;9471;51.168;4.154;2022-09-09T15:00:16;20.30;99.90
18682;DHT22;9471;51.168;4.154;2022-09-09T15:02:43;20.40;99.90
18682;DHT22;9471;51.168;4.154;2022-09-09T15:05:10;20.70;99.90
18682;DHT22;9471;51.168;4.154;2022-09-09T15:07:37;20.90;99.90
18682;DHT22;9471;51.168;4.154;2022-09-09T15:10:05;21.10;99.90
18682;DHT22;9471;51.168;4.154;2022-09-09T15:12:32;21.20;99.90
18682;DHT22;9471;51.168;4.154;2022-09-09T15:15:03;21.20;99.90
18682;DHT22;9471;51.168;4.154;2022-09-09T15:17:30;21.20;99.90
18682;DHT22;9471;51.168;4.154;2022-09-09T15:19:57;20.90;99.90
18682;DHT22;9471;51.168;4.154;2022-09-09T15:22:24;20.40;99.90
18682;DHT22;9471;51.168;4.154;2022-09-09T15:24:52;20.40;99.90
18682;DHT22;9471;51.168;4.154;2022-09-09T15:27:18;20.70;99.90
18682;DHT22;9471;51.168;4.154;2022-09-09T15:29:45;20.10;99.90
18682;DHT22;9471;51.168;4.154;2022-09-09T15:32:14;19.80;99.90
18682;DHT22;9471;51.168;4.154;2022-09-09T15:34:41;20.00;99.90
18682;DHT22;9471;51.168;4.154;2022-09-09T15:37:11;19.90;99.90
18682;DHT22;9471;51.168;4.154;2022-09-09T15:39:39;19.30;99.90
18682;DHT22;9471;51.168;4.154;2022-09-09T15:42:06;19.30;99.90
18682;DHT22;9471;51.168;4.154;2022-09-09T15:44:38;19.50;99.90
18682;DHT22;9471;51.168;4.154;2022-09-09T15:47:06;19.50;99.90
18682;DHT22;9471;51.168;4.154;2022-09-09T15:49:34;19.20;99.90
18682;DHT22;9471;51.168;4.154;2022-09-09T15:52:01;19.50;99.90
18682;DHT22;9471;51.168;4.154;2022-09-09T15:54:32;19.50;99.90
18682;DHT22;9471;51.168;4.154;2022-09-09T15:57:01;19.60;99.90
18682;DHT22;9471;51.168;4.154;2022-09-09T15:59:30;19.60;99.90
18682;DHT22;9471;51.168;4.154;2022-09-09T16:01:57;19.50;99.90
18682;DHT22;9471;51.168;4.154;2022-09-09T16:04:26;19.50;99.90
18682;DHT22;9471;51.168;4.154;2022-09-09T16:06:57;19.10;99.90
18682;DHT22;9471;51.168;4.154;2022-09-09T16:09:25;19.00;99.90
18682;DHT22;9471;51.168;4.154;2022-09-09T16:11:55;19.10;99.90
18682;DHT22;9471;51.168;4.154;2022-09-09T16:14:24;19.10;99.90